Time;durP1;ratioP1;P1;durP2;ratioP2;P2;SDS_P1;SDS_P2;PMS_P1;PMS_P2;Temp;Humidity;BMP_temperature;BMP_pressure;BME280_temperature;BME280_humidity;BME280_pressure;Samples;Min_cycle;Max_cycle;Signal;HPM_P1;HPM_P2
2021/06/28 00:00:19;;;;;;;3.67;2.83;;;;;;;19.92;64.53;100757.56;5081751;28;20579;-80
2021/06/28 00:02:46;;;;;;;4.60;3.00;;;;;;;19.91;64.33;100758.56;5086411;28;20215;-81
2021/06/28 00:05:14;;;;;;;3.83;2.50;;;;;;;19.89;64.30;100755.16;5088558;28;20216;-82
2021/06/28 00:07:41;;;;;;;4.30;3.53;;;;;;;19.89;64.30;100757.00;5078359;28;20211;-83
2021/06/28 00:10:10;;;;;;;4.17;3.20;;;;;;;19.88;64.32;100769.72;5073893;28;20236;-82
2021/06/28 00:12:38;;;;;;;7.43;3.63;;;;;;;19.86;64.61;100765.47;5074791;28;20582;-82
2021/06/28 00:15:09;;;;;;;4.57;3.27;;;;;;;19.85;65.12;100764.59;5058909;28;20215;-82
2021/06/28 00:17:35;;;;;;;4.83;3.53;;;;;;;19.83;65.25;100761.19;5089154;28;20206;-81
2021/06/28 00:20:02;;;;;;;7.47;3.93;;;;;;;19.83;65.35;100771.16;5068666;28;20565;-83
2021/06/28 00:22:29;;;;;;;5.90;3.30;;;;;;;19.79;65.73;100770.63;5067302;28;20214;-82
2021/06/28 00:24:55;;;;;;;3.53;3.17;;;;;;;19.77;65.58;100767.22;5064786;28;20200;-83
2021/06/28 00:27:23;;;;;;;3.40;3.10;;;;;;;19.77;65.54;100764.50;5068022;28;20577;-83
2021/06/28 00:29:51;;;;;;;3.50;3.27;;;;;;;19.77;65.20;100759.97;5072963;28;20693;-82
2021/06/28 00:32:18;;;;;;;5.03;3.03;;;;;;;19.78;65.26;100774.31;5069609;28;20212;-82
2021/06/28 00:34:45;;;;;;;3.40;3.10;;;;;;;19.79;65.25;100765.22;5068740;28;20207;-83
2021/06/28 00:37:11;;;;;;;2.60;2.40;;;;;;;19.80;65.18;100772.31;5084822;28;20211;-80
2021/06/28 00:39:38;;;;;;;4.00;3.07;;;;;;;19.83;65.04;100765.75;5084563;28;20230;-81
2021/06/28 00:42:05;;;;;;;3.53;3.23;;;;;;;19.83;65.00;100760.34;5078993;28;20208;-81
2021/06/28 00:44:32;;;;;;;3.43;3.13;;;;;;;19.82;64.81;100759.50;5068192;28;20208;-82
2021/06/28 00:47:00;;;;;;;3.57;3.27;;;;;;;19.81;64.97;100759.66;5079999;28;20209;-81
2021/06/28 00:49:26;;;;;;;3.80;3.50;;;;;;;19.80;64.81;100755.25;5076737;28;20314;-81
2021/06/28 00:51:57;;;;;;;3.47;3.13;;;;;;;19.80;64.78;100757.94;5077191;28;20222;-81
2021/06/28 00:54:24;;;;;;;3.43;3.13;;;;;;;19.79;64.68;100746.28;5080593;28;20286;-80
2021/06/28 00:56:51;;;;;;;2.93;2.73;;;;;;;19.78;64.46;100736.47;5074382;28;20688;-81
2021/06/28 00:59:18;;;;;;;3.13;2.90;;;;;;;19.79;64.39;100731.94;5062451;28;20328;-83
2021/06/28 01:01:45;;;;;;;3.10;2.90;;;;;;;19.77;64.26;100734.78;5080268;28;20213;-83
2021/06/28 01:04:13;;;;;;;2.63;2.43;;;;;;;19.76;64.20;100730.38;5073076;28;20207;-80
2021/06/28 01:06:40;;;;;;;4.53;3.30;;;;;;;19.76;64.26;100730.38;5073601;28;20222;-81
2021/06/28 01:09:06;;;;;;;5.17;3.03;;;;;;;19.74;64.27;100725.13;5076405;28;20314;-84
2021/06/28 01:11:33;;;;;;;4.60;3.17;;;;;;;19.71;64.32;100725.44;5081562;28;20599;-82
2021/06/28 01:14:00;;;;;;;4.23;3.30;;;;;;;19.70;64.50;100718.34;5082904;28;20204;-81
2021/06/28 01:16:27;;;;;;;3.27;2.97;;;;;;;19.67;64.54;100709.69;5078220;28;20218;-84
2021/06/28 01:18:54;;;;;;;3.57;3.20;;;;;;;19.65;64.21;100712.56;5091536;28;20226;-81
2021/06/28 01:21:22;;;;;;;3.83;3.00;;;;;;;19.65;64.22;100709.00;5084259;28;20194;-84
2021/06/28 01:23:50;;;;;;;4.10;2.93;;;;;;;19.64;64.33;100705.44;5085185;28;20210;-80
2021/06/28 01:26:16;;;;;;;5.43;2.97;;;;;;;19.64;64.32;100710.84;5079744;28;20203;-80
2021/06/28 01:28:43;;;;;;;3.60;3.17;;;;;;;19.64;63.99;100710.00;5072602;28;20577;-81
2021/06/28 01:31:11;;;;;;;3.53;3.23;;;;;;;19.64;64.15;100708.16;5085352;28;20239;-80
2021/06/28 01:33:38;;;;;;;3.50;3.20;;;;;;;19.62;64.17;100704.75;5090046;28;20209;-80
2021/06/28 01:36:06;;;;;;;4.27;3.50;;;;;;;19.61;64.22;100710.31;5094429;28;20198;-80
2021/06/28 01:38:33;;;;;;;3.43;2.83;;;;;;;19.59;64.34;100720.41;5091614;28;20202;-79
2021/06/28 01:41:01;;;;;;;3.30;3.00;;;;;;;19.56;64.62;100709.91;5084414;28;20204;-82
2021/06/28 01:43:28;;;;;;;3.50;3.20;;;;;;;19.54;64.87;100722.72;5099908;28;20206;-81
2021/06/28 01:45:55;;;;;;;6.50;3.00;;;;;;;19.50;65.14;100719.50;5096373;28;20199;-82
2021/06/28 01:48:22;;;;;;;3.87;3.40;;;;;;;19.48;65.48;100718.75;5077492;28;20213;-83
2021/06/28 01:50:50;;;;;;;3.57;3.17;;;;;;;19.47;65.58;100721.63;5065783;28;20234;-82
2021/06/28 01:53:17;;;;;;;5.33;3.70;;;;;;;19.43;65.59;100730.03;5061389;28;20206;-81
2021/06/28 01:55:43;;;;;;;7.33;3.67;;;;;;;19.40;65.70;100721.38;5078063;28;20214;-80
2021/06/28 01:58:16;;;;;;;7.33;3.83;;;;;;;19.37;65.71;100727.91;5082969;28;20296;-81
2021/06/28 02:00:47;;;;;;;5.57;3.67;;;;;;;19.34;65.88;100728.25;5085664;28;20232;-81
2021/06/28 02:03:16;;;;;;;4.57;3.63;;;;;;;19.33;66.22;100725.69;5070788;28;20655;-79
2021/06/28 02:05:44;;;;;;;6.87;3.80;;;;;;;19.33;66.21;100731.94;5077901;28;20214;-80
2021/06/28 02:08:12;;;;;;;5.60;3.37;;;;;;;19.32;66.19;100735.66;5078230;28;20277;-81
2021/06/28 02:10:42;;;;;;;6.07;3.80;;;;;;;19.33;65.93;100731.94;5065099;28;20255;-81
2021/06/28 02:13:09;;;;;;;9.10;4.20;;;;;;;19.33;65.86;100737.34;5080329;28;20211;-81
2021/06/28 02:15:37;;;;;;;4.07;3.53;;;;;;;19.34;65.74;100727.41;5061421;28;20205;-80
2021/06/28 02:18:04;;;;;;;5.77;3.97;;;;;;;19.37;65.72;100737.88;5093566;28;20210;-80
2021/06/28 02:20:31;;;;;;;5.70;3.43;;;;;;;19.39;65.77;100727.75;5089494;28;20623;-81
2021/06/28 02:23:12;;;;;;;3.37;3.07;;;;;;;19.43;65.68;100737.28;5090484;28;20204;-80
2021/06/28 02:25:39;;;;;;;4.23;3.83;;;;;;;19.46;65.45;100736.97;5077287;28;20630;-81
2021/06/28 02:28:05;;;;;;;4.17;3.77;;;;;;;19.49;65.11;100730.41;5080913;28;20198;-80
2021/06/28 02:30:32;;;;;;;4.50;4.07;;;;;;;19.50;65.12;100724.91;5083077;28;20222;-80
2021/06/28 02:33:00;;;;;;;4.20;3.80;;;;;;;19.52;65.30;100727.44;5079062;28;20199;-81
2021/06/28 02:35:26;;;;;;;5.47;3.87;;;;;;;19.52;65.56;100722.03;5081939;28;20218;-80
2021/06/28 02:37:53;;;;;;;4.73;4.10;;;;;;;19.52;65.68;100719.34;5063498;28;20215;-80
2021/06/28 02:40:20;;;;;;;5.03;3.73;;;;;;;19.51;65.69;100723.06;5084906;28;20229;-81
2021/06/28 02:42:46;;;;;;;5.73;4.00;;;;;;;19.49;65.72;100720.47;5085074;28;20678;-82
2021/06/28 02:45:13;;;;;;;5.87;3.83;;;;;;;19.50;65.96;100724.91;5072367;28;20203;-81
2021/06/28 02:47:40;;;;;;;8.20;4.33;;;;;;;19.52;67.10;100720.19;5083246;28;20576;-81
2021/06/28 02:50:09;;;;;;;5.50;4.30;;;;;;;19.61;68.01;100718.41;5073953;28;20995;-80
2021/06/28 02:52:36;;;;;;;4.70;4.03;;;;;;;19.66;68.20;100725.06;5072389;28;20222;-80
2021/06/28 02:55:03;;;;;;;6.10;4.50;;;;;;;19.68;68.41;100725.75;5069932;28;20211;-80
2021/06/28 02:57:30;;;;;;;8.00;4.47;;;;;;;19.71;68.71;100735.38;5067787;28;20697;-80
2021/06/28 02:59:56;;;;;;;4.90;4.10;;;;;;;19.72;69.14;100737.09;5082803;28;20214;-80
2021/06/28 03:02:23;;;;;;;7.47;4.50;;;;;;;19.76;69.70;100738.47;5070280;28;20203;-80
2021/06/28 03:04:50;;;;;;;4.77;4.20;;;;;;;19.76;69.54;100730.38;5077684;28;20594;-81
2021/06/28 03:07:18;;;;;;;5.07;4.57;;;;;;;19.75;69.39;100731.38;5079624;28;20578;-80
2021/06/28 03:09:45;;;;;;;6.70;4.77;;;;;;;19.73;69.49;100722.56;5080399;28;20226;-80
2021/06/28 03:12:12;;;;;;;10.77;4.87;;;;;;;19.68;69.80;100711.41;5069992;28;20228;-80
2021/06/28 03:14:39;;;;;;;7.47;3.83;;;;;;;19.62;69.90;100707.44;5073758;28;20655;-80
2021/06/28 03:17:05;;;;;;;11.23;4.60;;;;;;;19.58;70.25;100722.25;5080847;28;20652;-80
2021/06/28 03:19:32;;;;;;;7.23;4.43;;;;;;;19.55;70.77;100722.56;5065023;28;20223;-80
2021/06/28 03:21:58;;;;;;;6.27;4.97;;;;;;;19.56;71.49;100716.16;5077215;28;20202;-81
2021/06/28 03:24:26;;;;;;;8.07;4.73;;;;;;;19.57;71.66;100707.06;5078699;28;20219;-82
2021/06/28 03:26:53;;;;;;;6.20;4.07;;;;;;;19.60;71.92;100711.31;5077574;28;20206;-80
2021/06/28 03:29:19;;;;;;;4.80;4.30;;;;;;;19.60;71.68;100711.31;5083306;28;20229;-81
2021/06/28 03:31:46;;;;;;;5.50;5.00;;;;;;;19.58;71.78;100710.59;5077828;28;20227;-81
2021/06/28 03:34:12;;;;;;;5.13;4.63;;;;;;;19.58;71.80;100718.72;5062484;28;20198;-82
2021/06/28 03:36:41;;;;;;;4.97;4.23;;;;;;;19.57;71.75;100719.72;5077559;28;20202;-80
2021/06/28 03:39:08;;;;;;;9.23;4.53;;;;;;;19.51;71.55;100712.25;5072167;28;20241;-82
2021/06/28 03:41:36;;;;;;;8.70;5.00;;;;;;;19.45;71.58;100702.00;5072271;28;20230;-81
2021/06/28 03:44:04;;;;;;;10.20;4.87;;;;;;;19.35;71.72;100708.31;5075220;28;20242;-84
2021/06/28 03:46:31;;;;;;;7.17;4.57;;;;;;;19.27;72.13;100704.69;5071593;28;20203;-81
2021/06/28 03:48:57;;;;;;;7.87;4.57;;;;;;;19.20;72.53;100690.94;5068717;28;20227;-81
2021/06/28 03:51:24;;;;;;;9.60;4.90;;;;;;;19.16;72.61;100702.22;5069314;28;20256;-81
2021/06/28 03:53:51;;;;;;;5.20;4.70;;;;;;;19.12;73.17;100698.94;5071224;28;20209;-81
2021/06/28 03:56:18;;;;;;;6.40;4.60;;;;;;;19.10;73.04;100697.41;5081957;28;20247;-82
2021/06/28 03:58:46;;;;;;;5.67;4.73;;;;;;;19.09;73.29;100699.25;5070241;28;20227;-82
2021/06/28 04:01:13;;;;;;;6.27;4.73;;;;;;;19.06;73.26;100702.25;5061535;28;20201;-79
2021/06/28 04:03:40;;;;;;;6.33;5.13;;;;;;;19.03;73.01;100705.25;5057090;28;20211;-83
2021/06/28 04:06:09;;;;;;;5.77;5.20;;;;;;;18.99;73.29;100695.72;5073746;28;20211;-80
2021/06/28 04:08:39;;;;;;;7.40;5.03;;;;;;;18.95;73.62;100688.97;5077303;28;20211;-81
2021/06/28 04:11:07;;;;;;;6.70;5.23;;;;;;;18.92;73.54;100697.34;5079067;28;20201;-83
2021/06/28 04:13:33;;;;;;;7.53;5.33;;;;;;;18.87;73.68;100702.34;5067953;28;20201;-82
2021/06/28 04:16:01;;;;;;;7.83;5.03;;;;;;;18.82;74.13;100715.41;5075255;28;20800;-81
2021/06/28 04:18:28;;;;;;;6.27;4.67;;;;;;;18.80;74.08;100712.06;5073115;28;20201;-82
2021/06/28 04:20:55;;;;;;;6.27;5.10;;;;;;;18.79;74.31;100710.34;5071199;28;20400;-83
2021/06/28 04:23:21;;;;;;;7.57;5.40;;;;;;;18.79;74.24;100710.34;5069776;28;20201;-82
2021/06/28 04:25:48;;;;;;;8.17;5.27;;;;;;;18.81;74.25;100719.16;5068950;28;20225;-82
2021/06/28 04:28:15;;;;;;;7.20;5.00;;;;;;;18.82;74.30;100720.81;5070586;28;20212;-82
2021/06/28 04:30:41;;;;;;;7.03;5.80;;;;;;;18.85;74.47;100731.31;5071602;28;20225;-83
2021/06/28 04:33:09;;;;;;;6.07;4.90;;;;;;;18.88;74.51;100728.31;5067297;28;20719;-81
2021/06/28 04:35:36;;;;;;;5.87;5.23;;;;;;;18.92;74.51;100732.44;5072301;28;20215;-82
2021/06/28 04:38:03;;;;;;;9.20;5.57;;;;;;;18.96;74.41;100731.16;5068141;28;20216;-83
2021/06/28 04:40:30;;;;;;;5.77;5.27;;;;;;;19.00;74.17;100736.06;5066196;28;20255;-81
2021/06/28 04:42:58;;;;;;;5.73;5.23;;;;;;;19.04;73.99;100736.63;5075307;28;21644;-82
2021/06/28 04:45:25;;;;;;;5.57;5.07;;;;;;;19.07;73.74;100739.03;5067311;28;20228;-83
2021/06/28 04:47:53;;;;;;;6.37;5.20;;;;;;;19.11;73.70;100745.00;5073083;28;20207;-83
2021/06/28 04:50:23;;;;;;;5.63;4.87;;;;;;;19.15;73.48;100746.41;5068705;28;20226;-80
2021/06/28 04:52:51;;;;;;;6.63;5.20;;;;;;;19.18;73.27;100738.81;5073358;28;20227;-84
2021/06/28 04:55:17;;;;;;;6.60;5.90;;;;;;;19.22;73.18;100734.84;5073042;28;20206;-83
2021/06/28 04:57:45;;;;;;;6.03;5.43;;;;;;;19.26;73.25;100733.53;5071995;28;20218;-81
2021/06/28 05:00:14;;;;;;;6.03;5.27;;;;;;;19.28;72.85;100728.00;5071138;28;20640;-82
2021/06/28 05:02:40;;;;;;;9.80;6.17;;;;;;;19.27;72.66;100727.13;5076788;28;20212;-81
2021/06/28 05:05:08;;;;;;;5.80;5.17;;;;;;;19.30;72.38;100732.25;5073802;28;20203;-82
2021/06/28 05:07:36;;;;;;;7.07;5.10;;;;;;;19.32;72.28;100734.78;5067313;28;20326;-83
2021/06/28 05:10:04;;;;;;;5.90;5.37;;;;;;;19.34;72.12;100752.56;5085952;28;20697;-82
2021/06/28 05:12:31;;;;;;;6.43;5.30;;;;;;;19.38;71.93;100750.38;5075221;28;20270;-82
2021/06/28 05:14:57;;;;;;;7.10;5.33;;;;;;;19.42;71.58;100754.47;5066559;28;20209;-80
2021/06/28 05:17:24;;;;;;;7.70;6.00;;;;;;;19.46;71.67;100755.03;5075844;28;20245;-83
2021/06/28 05:19:51;;;;;;;7.87;5.27;;;;;;;19.49;71.43;100752.03;5073211;28;20223;-82
2021/06/28 05:22:18;;;;;;;6.63;6.03;;;;;;;19.50;70.90;100732.16;5076338;28;20203;-83
2021/06/28 05:24:45;;;;;;;7.03;6.37;;;;;;;19.54;71.42;100738.94;5078053;28;20293;-83
2021/06/28 05:27:12;;;;;;;7.10;6.17;;;;;;;19.55;71.72;100741.47;5072252;28;20671;-83
2021/06/28 05:29:38;;;;;;;8.80;6.20;;;;;;;19.55;71.79;100730.66;5074965;28;20230;-83
2021/06/28 05:32:06;;;;;;;7.33;5.70;;;;;;;19.57;71.81;100738.63;5071526;28;20227;-81
2021/06/28 05:34:32;;;;;;;6.13;5.53;;;;;;;19.59;72.00;100736.63;5075838;28;20199;-81
2021/06/28 05:36:59;;;;;;;7.97;6.23;;;;;;;19.62;71.77;100728.22;5073576;28;20660;-81
2021/06/28 05:39:26;;;;;;;7.00;6.30;;;;;;;19.66;72.17;100724.22;5071305;28;20313;-82
2021/06/28 05:41:54;;;;;;;7.57;6.23;;;;;;;19.71;72.52;100730.84;5076216;28;20205;-81
2021/06/28 05:44:20;;;;;;;11.50;6.77;;;;;;;19.76;72.48;100727.69;5067321;28;20212;-81
2021/06/28 05:46:47;;;;;;;8.77;6.60;;;;;;;19.77;72.27;100724.81;5074131;28;20313;-81
2021/06/28 05:49:13;;;;;;;11.63;7.10;;;;;;;19.79;72.38;100716.56;5073748;28;20236;-81
2021/06/28 05:51:40;;;;;;;8.47;6.13;;;;;;;19.83;72.38;100717.97;5071005;28;20208;-82
2021/06/28 05:54:06;;;;;;;8.43;5.87;;;;;;;19.86;72.97;100722.22;5068341;28;20220;-82
2021/06/28 05:56:33;;;;;;;9.50;6.30;;;;;;;19.89;72.74;100721.88;5071043;28;20207;-82
2021/06/28 05:59:01;;;;;;;7.13;6.10;;;;;;;19.91;72.78;100722.56;5071211;28;20222;-82
2021/06/28 06:01:27;;;;;;;8.43;6.70;;;;;;;19.91;72.74;100723.41;5072712;28;20210;-82
2021/06/28 06:03:54;;;;;;;8.27;6.30;;;;;;;19.93;72.80;100718.72;5073955;28;20214;-81
2021/06/28 06:06:21;;;;;;;7.80;6.60;;;;;;;19.95;73.11;100723.97;5077829;28;20237;-79
2021/06/28 06:08:48;;;;;;;10.53;6.13;;;;;;;19.96;73.04;100718.41;5074951;28;21685;-80
2021/06/28 06:11:14;;;;;;;6.93;6.03;;;;;;;20.01;72.86;100726.06;5070680;28;20206;-79
2021/06/28 06:13:41;;;;;;;9.87;6.53;;;;;;;20.02;72.84;100716.94;5073033;28;20227;-80
2021/06/28 06:16:08;;;;;;;9.20;6.20;;;;;;;20.05;72.77;100716.63;5070908;28;20295;-81
2021/06/28 06:18:35;;;;;;;7.33;6.10;;;;;;;20.06;72.73;100713.75;5072912;28;20214;-82
2021/06/28 06:21:01;;;;;;;8.40;6.57;;;;;;;20.10;72.56;100709.72;5074425;28;20204;-82
2021/06/28 06:23:28;;;;;;;6.80;6.20;;;;;;;20.15;72.76;100713.81;5073799;28;20214;-80
2021/06/28 06:25:55;;;;;;;10.00;6.57;;;;;;;20.21;72.79;100724.88;5073336;28;20284;-82
2021/06/28 06:28:22;;;;;;;7.33;6.50;;;;;;;20.27;72.68;100716.09;5072162;28;20207;-80
2021/06/28 06:30:48;;;;;;;8.27;6.80;;;;;;;20.33;72.73;100717.34;5074377;28;20235;-82
2021/06/28 06:33:16;;;;;;;7.77;6.97;;;;;;;20.38;72.86;100720.47;5072187;28;20221;-79
2021/06/28 06:35:43;;;;;;;11.10;6.90;;;;;;;20.42;72.25;100727.25;5072413;28;20598;-80
2021/06/28 06:38:09;;;;;;;8.67;6.97;;;;;;;20.46;72.15;100723.19;5069543;28;20672;-81
2021/06/28 06:40:36;;;;;;;8.37;7.53;;;;;;;20.49;72.06;100722.03;5074667;28;20326;-80
2021/06/28 06:43:03;;;;;;;8.27;6.43;;;;;;;20.52;71.68;100722.56;5068815;28;20319;-80
2021/06/28 06:45:30;;;;;;;7.53;6.60;;;;;;;20.55;71.45;100714.16;5073629;28;20212;-83
2021/06/28 06:47:57;;;;;;;8.53;6.50;;;;;;;20.57;70.90;100722.97;5072876;28;20218;-80
2021/06/28 06:50:25;;;;;;;9.20;6.80;;;;;;;20.59;70.63;100728.22;5075388;28;20225;-80
2021/06/28 06:52:51;;;;;;;6.73;6.13;;;;;;;20.63;70.67;100721.44;5072395;28;20652;-80
2021/06/28 06:55:20;;;;;;;10.20;6.83;;;;;;;20.71;70.91;100733.19;5073778;28;20222;-81
2021/06/28 06:57:47;;;;;;;8.07;6.73;;;;;;;20.80;71.02;100740.31;5073446;28;20216;-81
2021/06/28 07:00:16;;;;;;;7.50;6.80;;;;;;;20.90;70.87;100739.38;5069353;28;20238;-79
2021/06/28 07:02:43;;;;;;;7.37;6.67;;;;;;;20.98;71.21;100733.97;5069631;28;20207;-82
2021/06/28 07:05:11;;;;;;;6.97;6.23;;;;;;;21.05;70.70;100737.75;5070484;28;20214;-82
2021/06/28 07:07:40;;;;;;;7.23;5.83;;;;;;;21.11;70.62;100737.97;5074739;28;20212;-82
2021/06/28 07:10:08;;;;;;;8.33;5.83;;;;;;;21.19;70.51;100730.84;5077801;28;20312;-81
2021/06/28 07:12:35;;;;;;;6.60;6.00;;;;;;;21.26;70.30;100726.53;5074835;28;20235;-81
2021/06/28 07:15:01;;;;;;;6.20;5.67;;;;;;;21.32;69.66;100726.69;5083373;28;20209;-81
2021/06/28 07:17:28;;;;;;;9.47;6.60;;;;;;;21.38;69.57;100723.34;5069989;28;20203;-81
2021/06/28 07:19:54;;;;;;;9.33;5.97;;;;;;;21.45;69.18;100721.66;5079652;28;20220;-81
2021/06/28 07:22:21;;;;;;;7.63;5.80;;;;;;;21.54;68.98;100716.25;5078000;28;20197;-82
2021/06/28 07:24:49;;;;;;;9.80;5.93;;;;;;;21.63;68.79;100717.97;5086234;28;20294;-83
2021/06/28 07:27:16;;;;;;;11.30;5.82;;;;;;;21.74;68.73;100717.66;5061606;28;20212;-83
2021/06/28 07:29:43;;;;;;;6.07;5.47;;;;;;;21.92;68.53;100714.78;5069382;28;20225;-83
2021/06/28 07:32:09;;;;;;;7.35;5.43;;;;;;;22.10;68.04;100712.78;5062978;28;20202;-83
2021/06/28 07:34:36;;;;;;;7.47;5.27;;;;;;;22.25;66.95;100719.22;5078619;28;20197;-80
2021/06/28 07:37:03;;;;;;;5.82;5.20;;;;;;;22.38;66.23;100713.28;5074127;28;20204;-81
2021/06/28 07:39:29;;;;;;;6.45;5.40;;;;;;;22.52;65.60;100720.72;5079289;28;20230;-81
2021/06/28 07:41:58;;;;;;;5.57;5.00;;;;;;;22.71;64.70;100720.34;5075200;28;20291;-82
2021/06/28 07:44:25;;;;;;;5.82;5.18;;;;;;;22.90;64.13;100708.25;5073741;28;20211;-81
2021/06/28 07:46:52;;;;;;;5.55;4.95;;;;;;;23.13;64.04;100714.59;5084935;28;20557;-81
2021/06/28 07:49:19;;;;;;;7.55;5.65;;;;;;;23.35;62.67;100712.97;5076832;28;20227;-81
2021/06/28 07:51:45;;;;;;;5.47;4.93;;;;;;;23.56;62.09;100711.50;5071946;28;20201;-80
2021/06/28 07:54:17;;;;;;;5.60;4.95;;;;;;;23.72;60.47;100705.97;5063101;28;20217;-81
2021/06/28 07:56:44;;;;;;;6.75;4.75;;;;;;;23.91;59.58;100699.19;5073587;28;20201;-82
2021/06/28 07:59:12;;;;;;;5.00;4.57;;;;;;;24.04;58.12;100693.97;5073167;28;20216;-81
2021/06/28 08:01:38;;;;;;;6.07;4.60;;;;;;;24.21;57.37;100700.97;5072723;28;20553;-81
2021/06/28 08:04:05;;;;;;;5.75;4.70;;;;;;;24.39;57.34;100690.59;5071883;28;20627;-80
2021/06/28 08:06:32;;;;;;;6.18;4.65;;;;;;;24.61;56.38;100697.00;5073271;28;20209;-82
2021/06/28 08:08:58;;;;;;;4.60;4.20;;;;;;;24.80;55.60;100691.00;5074065;28;20226;-81
2021/06/28 08:11:26;;;;;;;4.60;4.30;;;;;;;24.97;54.26;100680.78;5070829;28;20240;-81
2021/06/28 08:13:54;;;;;;;4.63;4.22;;;;;;;25.14;52.72;100682.25;5074149;28;20686;-81
2021/06/28 08:16:24;;;;;;;4.57;4.18;;;;;;;25.28;51.71;100677.81;5074731;28;20208;-80
2021/06/28 08:18:53;;;;;;;3.97;3.67;;;;;;;25.45;50.84;100678.41;5073078;28;20599;-81
2021/06/28 08:21:21;;;;;;;6.07;4.28;;;;;;;25.67;50.61;100673.84;5074682;28;20546;-82
2021/06/28 08:23:48;;;;;;;4.53;4.05;;;;;;;25.90;50.56;100678.09;5071132;28;20209;-81
2021/06/28 08:26:14;;;;;;;4.65;4.25;;;;;;;26.13;50.82;100677.03;5069695;28;20221;-82
2021/06/28 08:28:41;;;;;;;4.93;4.47;;;;;;;26.30;49.92;100667.53;5069975;28;20208;-82
2021/06/28 08:31:08;;;;;;;4.20;3.90;;;;;;;26.44;49.01;100673.91;5073540;28;20308;-81
2021/06/28 08:33:36;;;;;;;4.82;4.40;;;;;;;26.52;48.02;100671.84;5074091;28;20247;-81
2021/06/28 08:36:03;;;;;;;5.18;4.65;;;;;;;26.61;47.67;100669.81;5071098;28;20288;-81
2021/06/28 08:38:30;;;;;;;4.85;4.55;;;;;;;26.74;47.63;100667.16;5071092;28;20204;-82
2021/06/28 08:40:57;;;;;;;4.38;4.07;;;;;;;26.91;46.61;100676.72;5074393;28;20204;-80
2021/06/28 08:43:24;;;;;;;4.35;4.00;;;;;;;27.06;46.90;100678.47;5072041;28;20203;-81
2021/06/28 08:45:53;;;;;;;4.82;4.50;;;;;;;27.19;46.35;100678.56;5072858;28;20201;-81
2021/06/28 08:48:20;;;;;;;5.03;4.63;;;;;;;27.29;45.85;100673.53;5073881;28;20658;-82
2021/06/28 08:50:49;;;;;;;4.28;3.97;;;;;;;27.41;45.54;100682.81;5068441;28;20250;-80
2021/06/28 08:53:18;;;;;;;4.63;4.22;;;;;;;27.53;45.55;100677.59;5064486;28;20240;-81
2021/06/28 08:55:44;;;;;;;5.25;4.85;;;;;;;27.69;44.87;100671.78;5072778;28;20212;-80
2021/06/28 08:58:11;;;;;;;5.13;4.72;;;;;;;27.77;45.01;100679.75;5069276;28;20201;-80
2021/06/28 09:00:38;;;;;;;5.70;4.38;;;;;;;27.89;44.81;100682.75;5067580;28;20225;-82
2021/06/28 09:03:08;;;;;;;5.15;4.80;;;;;;;28.03;44.52;100681.69;5073676;28;20197;-82
2021/06/28 09:05:56;;;;;;;5.43;5.03;;;;;;;28.13;42.95;100679.38;5072229;28;20246;-81
2021/06/28 09:08:23;;;;;;;4.60;4.20;;;;;;;28.21;42.54;100683.81;5073091;28;20193;-81
2021/06/28 09:10:50;;;;;;;5.18;4.78;;;;;;;28.36;43.28;100687.19;5065927;28;20235;-81
2021/06/28 09:13:17;;;;;;;5.32;4.93;;;;;;;28.56;43.03;100692.63;5067108;28;20231;-80
2021/06/28 09:15:47;;;;;;;4.57;4.28;;;;;;;28.72;42.56;100697.66;5072555;28;20291;-80
2021/06/28 09:18:16;;;;;;;5.07;4.57;;;;;;;28.86;41.19;100690.28;5073768;28;20222;-82
2021/06/28 09:20:43;;;;;;;4.57;4.18;;;;;;;28.97;41.74;100692.38;5069779;28;21840;-80
2021/06/28 09:23:19;;;;;;;4.85;4.45;;;;;;;29.07;41.25;100695.47;5066152;28;20203;-81
2021/06/28 09:25:46;;;;;;;5.28;4.88;;;;;;;29.18;40.29;100696.72;5069494;28;20196;-81
2021/06/28 09:28:13;;;;;;;6.25;4.30;;;;;;;29.25;40.42;100692.03;5066851;28;20629;-81
2021/06/28 09:30:46;;;;;;;5.38;4.95;;;;;;;29.35;39.48;100692.41;5065551;28;20225;-82
2021/06/28 09:33:14;;;;;;;5.32;4.40;;;;;;;29.44;39.86;100690.28;5064813;28;20254;-81
2021/06/28 09:35:43;;;;;;;4.80;4.50;;;;;;;29.59;39.78;100691.66;5065719;28;20212;-82
2021/06/28 09:38:29;;;;;;;5.75;4.72;;;;;;;29.76;39.44;100691.13;5068804;28;20205;-81
2021/06/28 09:41:17;;;;;;;4.78;4.38;;;;;;;29.92;39.15;100693.34;5064543;28;20283;-79
2021/06/28 09:43:44;;;;;;;5.22;4.82;;;;;;;30.08;38.62;100694.75;5071166;28;20200;-81
2021/06/28 09:46:16;;;;;;;5.07;4.57;;;;;;;30.13;37.66;100693.00;5071102;28;20201;-81
2021/06/28 09:48:48;;;;;;;5.28;4.80;;;;;;;30.18;37.53;100693.16;5066447;28;20687;-82
2021/06/28 09:51:26;;;;;;;7.05;5.05;;;;;;;30.21;37.14;100692.72;5064859;28;20200;-81
2021/06/28 09:53:56;;;;;;;6.20;5.20;;;;;;;30.22;38.00;100685.31;5072212;28;20315;-80
2021/06/28 09:56:35;;;;;;;5.25;4.90;;;;;;;30.27;38.39;100682.75;5071946;28;20207;-82
2021/06/28 09:59:31;;;;;;;4.78;4.40;;;;;;;30.38;38.22;100693.00;5074316;28;20343;-82
2021/06/28 10:02:19;;;;;;;5.05;4.75;;;;;;;30.53;37.21;100676.13;5068372;28;20197;-82
2021/06/28 10:04:52;;;;;;;5.60;5.18;;;;;;;30.56;37.05;100686.72;5075572;28;20203;-81
2021/06/28 10:07:27;;;;;;;5.72;5.22;;;;;;;30.57;37.58;100677.41;5072259;28;20212;-81
2021/06/28 10:10:23;;;;;;;5.35;4.85;;;;;;;30.63;37.09;100682.00;5072880;28;20223;-82
2021/06/28 10:13:04;;;;;;;5.53;4.88;;;;;;;30.69;36.49;100692.91;5073039;28;20210;-80
2021/06/28 10:15:32;;;;;;;5.97;5.07;;;;;;;30.75;37.31;100685.66;5069544;28;20239;-80
2021/06/28 10:18:00;;;;;;;5.70;5.20;;;;;;;30.81;37.67;100675.69;5070944;28;20205;-80
2021/06/28 10:20:29;;;;;;;5.50;5.10;;;;;;;30.85;37.52;100674.13;5074029;28;20231;-80
2021/06/28 10:22:56;;;;;;;5.30;4.90;;;;;;;30.85;37.26;100671.38;5071265;28;20679;-80
2021/06/28 10:25:24;;;;;;;5.70;5.20;;;;;;;30.83;37.54;100663.34;5070954;28;20216;-81
2021/06/28 10:27:52;;;;;;;4.90;4.55;;;;;;;30.82;37.79;100666.31;5068109;28;20211;-82
2021/06/28 10:30:23;;;;;;;5.18;4.82;;;;;;;30.80;38.06;100674.00;5071803;28;20229;-82
2021/06/28 10:32:58;;;;;;;5.00;4.60;;;;;;;30.82;38.17;100672.66;5069703;28;20219;-80
2021/06/28 10:35:27;;;;;;;4.93;4.47;;;;;;;30.85;37.60;100672.22;5071987;28;20298;-80
2021/06/28 10:37:54;;;;;;;4.63;4.32;;;;;;;30.88;37.72;100666.25;5074024;28;20201;-81
2021/06/28 10:40:23;;;;;;;4.85;4.55;;;;;;;31.00;37.57;100669.06;5071310;28;20238;-81
2021/06/28 10:42:51;;;;;;;4.78;4.32;;;;;;;31.07;36.55;100670.69;5073286;28;20265;-81
2021/06/28 10:45:39;;;;;;;4.65;4.35;;;;;;;31.16;36.48;100659.41;5067175;28;20192;-81
2021/06/28 10:48:13;;;;;;;5.05;4.68;;;;;;;31.21;36.23;100659.53;5072165;28;20562;-81
2021/06/28 10:51:01;;;;;;;4.65;4.25;;;;;;;31.28;36.48;100663.88;5072290;28;20256;-82
2021/06/28 10:54:17;;;;;;;4.88;4.55;;;;;;;31.35;35.87;100661.84;5071108;28;20217;-80
2021/06/28 10:56:57;;;;;;;4.43;4.13;;;;;;;31.40;35.65;100655.66;5067503;28;20208;-80
2021/06/28 10:59:41;;;;;;;4.60;4.20;;;;;;;31.46;35.40;100657.50;5067173;28;20253;-79
2021/06/28 11:02:11;;;;;;;4.70;4.40;;;;;;;31.48;36.12;100652.59;5068423;28;20246;-80
2021/06/28 11:04:43;;;;;;;4.57;4.28;;;;;;;31.54;36.98;100659.06;5072258;28;20204;-80
2021/06/28 11:07:17;;;;;;;4.97;4.68;;;;;;;31.57;36.61;100656.69;5070695;28;20204;-80
2021/06/28 11:09:47;;;;;;;4.45;4.15;;;;;;;31.62;36.47;100653.22;5071370;28;20686;-80
2021/06/28 11:12:28;;;;;;;7.22;4.25;;;;;;;31.67;36.75;100654.25;5073356;28;20582;-80
2021/06/28 11:14:58;;;;;;;4.85;4.45;;;;;;;31.67;35.67;100667.16;5070397;28;20213;-80
2021/06/28 11:17:43;;;;;;;4.60;4.20;;;;;;;31.71;36.27;100658.19;5072143;28;20215;-80
2021/06/28 11:20:29;;;;;;;4.43;4.13;;;;;;;31.81;35.67;100659.53;5072107;28;20216;-80
2021/06/28 11:23:02;;;;;;;4.80;4.50;;;;;;;31.87;36.30;100647.59;5070830;28;20197;-80
2021/06/28 11:25:37;;;;;;;5.03;4.63;;;;;;;31.93;36.15;100652.97;5069806;28;20201;-80
2021/06/28 11:28:32;;;;;;;5.80;4.93;;;;;;;31.96;36.06;100652.50;5069542;28;20204;-79
2021/06/28 11:31:03;;;;;;;4.70;4.40;;;;;;;32.02;36.47;100642.44;5068248;28;20208;-82